sensor_id;sensor_type;location;lat;lon;timestamp;pressure;altitude;pressure_sealevel;temperature;humidity
68193;BME280;55012;47.562;18.414;2022-10-01T00:00:22;99391.63;;;12.74;100.00
68193;BME280;55012;47.562;18.414;2022-10-01T00:02:47;99389.56;;;12.67;100.00
68193;BME280;55012;47.562;18.414;2022-10-01T00:05:13;99403.81;;;12.64;100.00
68193;BME280;55012;47.562;18.414;2022-10-01T00:07:40;99409.59;;;12.62;100.00
68193;BME280;55012;47.562;18.414;2022-10-01T00:10:07;99412.31;;;12.62;100.00
68193;BME280;55012;47.562;18.414;2022-10-01T00:12:36;99401.41;;;12.59;100.00
68193;BME280;55012;47.562;18.414;2022-10-01T00:15:02;99380.47;;;12.59;100.00
68193;BME280;55012;47.562;18.414;2022-10-01T00:17:28;99400.69;;;12.62;100.00
68193;BME280;55012;47.562;18.414;2022-10-01T00:19:53;99411.19;;;12.63;100.00
68193;BME280;55012;47.562;18.414;2022-10-01T00:22:19;99417.84;;;12.66;100.00
68193;BME280;55012;47.562;18.414;2022-10-01T00:24:44;99397.69;;;12.67;100.00
68193;BME280;55012;47.562;18.414;2022-10-01T00:27:12;99402.78;;;12.69;100.00
68193;BME280;55012;47.562;18.414;2022-10-01T00:29:38;99408.09;;;12.65;100.00
68193;BME280;55012;47.562;18.414;2022-10-01T00:32:04;99406.09;;;12.62;100.00
68193;BME280;55012;47.562;18.414;2022-10-01T00:34:30;99404.53;;;12.61;100.00
68193;BME280;55012;47.562;18.414;2022-10-01T00:36:56;99402.25;;;12.63;100.00
68193;BME280;55012;47.562;18.414;2022-10-01T00:39:21;99409.34;;;12.68;100.00
68193;BME280;55012;47.562;18.414;2022-10-01T00:41:48;99398.56;;;12.71;100.00
68193;BME280;55012;47.562;18.414;2022-10-01T00:44:31;99391.97;;;12.72;100.00
68193;BME280;55012;47.562;18.414;2022-10-01T00:47:05;99388.47;;;12.72;100.00
68193;BME280;55012;47.562;18.414;2022-10-01T00:49:34;99381.47;;;12.71;100.00
68193;BME280;55012;47.562;18.414;2022-10-01T00:52:05;99396.97;;;12.70;100.00
68193;BME280;55012;47.562;18.414;2022-10-01T00:57:07;99397.03;;;12.74;100.00
68193;BME280;55012;47.562;18.414;2022-10-01T00:59:34;99392.50;;;12.78;100.00
68193;BME280;55012;47.562;18.414;2022-10-01T01:02:00;99397.19;;;12.81;100.00
68193;BME280;55012;47.562;18.414;2022-10-01T01:04:26;99389.84;;;12.81;100.00
68193;BME280;55012;47.562;18.414;2022-10-01T01:07:02;99396.06;;;12.82;100.00
68193;BME280;55012;47.562;18.414;2022-10-01T01:09:31;99397.19;;;12.81;100.00
68193;BME280;55012;47.562;18.414;2022-10-01T01:17:32;99382.06;;;12.80;100.00
68193;BME280;55012;47.562;18.414;2022-10-01T01:20:19;99378.97;;;12.81;100.00
68193;BME280;55012;47.562;18.414;2022-10-01T01:28:39;99368.06;;;12.78;100.00
68193;BME280;55012;47.562;18.414;2022-10-01T01:31:12;99371.50;;;12.75;100.00
68193;BME280;55012;47.562;18.414;2022-10-01T01:33:42;99373.34;;;12.71;100.00
68193;BME280;55012;47.562;18.414;2022-10-01T01:36:17;99371.69;;;12.66;100.00
68193;BME280;55012;47.562;18.414;2022-10-01T01:39:00;99364.69;;;12.65;100.00
68193;BME280;55012;47.562;18.414;2022-10-01T01:41:31;99369.69;;;12.63;100.00
68193;BME280;55012;47.562;18.414;2022-10-01T01:44:00;99361.13;;;12.61;100.00
68193;BME280;55012;47.562;18.414;2022-10-01T01:46:30;99369.63;;;12.59;100.00
68193;BME280;55012;47.562;18.414;2022-10-01T01:48:59;99362.94;;;12.57;100.00
68193;BME280;55012;47.562;18.414;2022-10-01T01:51:33;99355.16;;;12.55;100.00
68193;BME280;55012;47.562;18.414;2022-10-01T01:54:00;99353.59;;;12.54;100.00
68193;BME280;55012;47.562;18.414;2022-10-01T01:56:26;99349.31;;;12.53;100.00
68193;BME280;55012;47.562;18.414;2022-10-01T01:58:52;99350.88;;;12.54;100.00
68193;BME280;55012;47.562;18.414;2022-10-01T02:01:39;99357.19;;;12.58;100.00
68193;BME280;55012;47.562;18.414;2022-10-01T02:04:16;99353.34;;;12.59;100.00
68193;BME280;55012;47.562;18.414;2022-10-01T02:12:21;99366.59;;;12.64;100.00
68193;BME280;55012;47.562;18.414;2022-10-01T02:15:06;99370.56;;;12.67;100.00
68193;BME280;55012;47.562;18.414;2022-10-01T02:17:58;99372.97;;;12.72;100.00
68193;BME280;55012;47.562;18.414;2022-10-01T02:23:05;99362.22;;;12.76;100.00
68193;BME280;55012;47.562;18.414;2022-10-01T02:25:41;99353.97;;;12.72;100.00
68193;BME280;55012;47.562;18.414;2022-10-01T02:28:10;99353.56;;;12.70;100.00
68193;BME280;55012;47.562;18.414;2022-10-01T02:30:38;99345.34;;;12.67;100.00
68193;BME280;55012;47.562;18.414;2022-10-01T02:33:06;99347.59;;;12.64;100.00
68193;BME280;55012;47.562;18.414;2022-10-01T02:35:33;99340.63;;;12.63;100.00
68193;BME280;55012;47.562;18.414;2022-10-01T02:38:04;99347.97;;;12.63;100.00
68193;BME280;55012;47.562;18.414;2022-10-01T02:40:34;99343.25;;;12.60;100.00
68193;BME280;55012;47.562;18.414;2022-10-01T02:43:16;99354.13;;;12.60;100.00
68193;BME280;55012;47.562;18.414;2022-10-01T02:45:45;99347.91;;;12.59;100.00
68193;BME280;55012;47.562;18.414;2022-10-01T02:48:13;99344.41;;;12.59;100.00
68193;BME280;55012;47.562;18.414;2022-10-01T02:53:27;99342.03;;;12.57;100.00
68193;BME280;55012;47.562;18.414;2022-10-01T02:55:55;99332.69;;;12.55;100.00
68193;BME280;55012;47.562;18.414;2022-10-01T02:58:22;99336.53;;;12.54;100.00
68193;BME280;55012;47.562;18.414;2022-10-01T03:00:47;99337.31;;;12.54;100.00
68193;BME280;55012;47.562;18.414;2022-10-01T03:03:13;99343.09;;;12.53;100.00
68193;BME280;55012;47.562;18.414;2022-10-01T03:05:38;99350.09;;;12.54;100.00
68193;BME280;55012;47.562;18.414;2022-10-01T03:08:04;99344.69;;;12.54;100.00
68193;BME280;55012;47.562;18.414;2022-10-01T03:10:29;99355.53;;;12.54;100.00
68193;BME280;55012;47.562;18.414;2022-10-01T03:12:54;99351.25;;;12.53;100.00
68193;BME280;55012;47.562;18.414;2022-10-01T03:15:20;99349.69;;;12.52;100.00
68193;BME280;55012;47.562;18.414;2022-10-01T03:17:52;99353.59;;;12.54;100.00
68193;BME280;55012;47.562;18.414;2022-10-01T03:20:18;99362.53;;;12.55;100.00
68193;BME280;55012;47.562;18.414;2022-10-01T03:22:44;99356.31;;;12.54;100.00
68193;BME280;55012;47.562;18.414;2022-10-01T03:25:11;99357.88;;;12.55;100.00
68193;BME280;55012;47.562;18.414;2022-10-01T03:27:36;99372.25;;;12.56;100.00
68193;BME280;55012;47.562;18.414;2022-10-01T03:30:03;99362.16;;;12.56;100.00
68193;BME280;55012;47.562;18.414;2022-10-01T03:32:30;99360.59;;;12.55;100.00
68193;BME280;55012;47.562;18.414;2022-10-01T03:34:56;99352.09;;;12.57;100.00
68193;BME280;55012;47.562;18.414;2022-10-01T03:37:21;99354.81;;;12.57;100.00
68193;BME280;55012;47.562;18.414;2022-10-01T03:39:46;99352.09;;;12.57;100.00
68193;BME280;55012;47.562;18.414;2022-10-01T03:42:12;99350.97;;;12.58;100.00
68193;BME280;55012;47.562;18.414;2022-10-01T03:44:37;99364.19;;;12.59;100.00
68193;BME280;55012;47.562;18.414;2022-10-01T03:47:03;99372.31;;;12.59;100.00
68193;BME280;55012;47.562;18.414;2022-10-01T03:49:28;99362.63;;;12.58;100.00
68193;BME280;55012;47.562;18.414;2022-10-01T03:51:54;99353.69;;;12.58;100.00
68193;BME280;55012;47.562;18.414;2022-10-01T03:54:19;99363.41;;;12.59;100.00
68193;BME280;55012;47.562;18.414;2022-10-01T03:56:46;99355.25;;;12.59;100.00
68193;BME280;55012;47.562;18.414;2022-10-01T03:59:12;99343.25;;;12.60;100.00
68193;BME280;55012;47.562;18.414;2022-10-01T04:01:38;99350.25;;;12.61;100.00
68193;BME280;55012;47.562;18.414;2022-10-01T04:04:04;99341.75;;;12.62;100.00
68193;BME280;55012;47.562;18.414;2022-10-01T04:06:30;99351.47;;;12.63;100.00
68193;BME280;55012;47.562;18.414;2022-10-01T04:08:55;99355.41;;;12.66;100.00
68193;BME280;55012;47.562;18.414;2022-10-01T04:11:21;99359.69;;;12.67;100.00
68193;BME280;55012;47.562;18.414;2022-10-01T04:13:46;99351.97;;;12.69;100.00
68193;BME280;55012;47.562;18.414;2022-10-01T04:16:12;99357.00;;;12.67;100.00
68193;BME280;55012;47.562;18.414;2022-10-01T04:18:39;99356.28;;;12.70;100.00
68193;BME280;55012;47.562;18.414;2022-10-01T04:21:05;99364.84;;;12.72;100.00
68193;BME280;55012;47.562;18.414;2022-10-01T04:23:31;99355.53;;;12.73;100.00
68193;BME280;55012;47.562;18.414;2022-10-01T04:26:00;99354.06;;;12.76;100.00
68193;BME280;55012;47.562;18.414;2022-10-01T04:28:27;99357.56;;;12.76;100.00
68193;BME280;55012;47.562;18.414;2022-10-01T04:30:52;99359.56;;;12.79;100.00
68193;BME280;55012;47.562;18.414;2022-10-01T04:33:38;99363.47;;;12.82;100.00
68193;BME280;55012;47.562;18.414;2022-10-01T04:36:03;99373.22;;;12.83;100.00
68193;BME280;55012;47.562;18.414;2022-10-01T04:38:29;99377.50;;;12.84;100.00
68193;BME280;55012;47.562;18.414;2022-10-01T04:40:54;99380.22;;;12.84;100.00
68193;BME280;55012;47.562;18.414;2022-10-01T04:43:20;99385.66;;;12.84;100.00
68193;BME280;55012;47.562;18.414;2022-10-01T04:45:45;99385.97;;;12.82;100.00
68193;BME280;55012;47.562;18.414;2022-10-01T04:48:10;99385.66;;;12.84;100.00
68193;BME280;55012;47.562;18.414;2022-10-01T04:50:36;99379.78;;;12.82;100.00
68193;BME280;55012;47.562;18.414;2022-10-01T04:53:01;99377.84;;;12.82;100.00
68193;BME280;55012;47.562;18.414;2022-10-01T04:55:27;99376.72;;;12.83;100.00
68193;BME280;55012;47.562;18.414;2022-10-01T04:57:52;99382.47;;;12.82;100.00
68193;BME280;55012;47.562;18.414;2022-10-01T05:00:20;99370.50;;;12.83;100.00
68193;BME280;55012;47.562;18.414;2022-10-01T05:02:47;99377.16;;;12.85;100.00
68193;BME280;55012;47.562;18.414;2022-10-01T05:05:14;99370.50;;;12.83;100.00
68193;BME280;55012;47.562;18.414;2022-10-01T05:07:40;99376.72;;;12.83;100.00
68193;BME280;55012;47.562;18.414;2022-10-01T05:10:08;99377.06;;;12.82;100.00
68193;BME280;55012;47.562;18.414;2022-10-01T05:12:35;99377.06;;;12.82;100.00
68193;BME280;55012;47.562;18.414;2022-10-01T05:15:00;99376.72;;;12.83;100.00
68193;BME280;55012;47.562;18.414;2022-10-01T05:17:27;99384.16;;;12.86;100.00
68193;BME280;55012;47.562;18.414;2022-10-01T05:19:53;99387.66;;;12.87;100.00
68193;BME280;55012;47.562;18.414;2022-10-01T05:22:18;99388.78;;;12.86;100.00
68193;BME280;55012;47.562;18.414;2022-10-01T05:24:44;99379.44;;;12.83;100.00
68193;BME280;55012;47.562;18.414;2022-10-01T05:27:09;99383.72;;;12.84;100.00
68193;BME280;55012;47.562;18.414;2022-10-01T05:29:38;99386.44;;;12.84;100.00
68193;BME280;55012;47.562;18.414;2022-10-01T05:32:05;99392.66;;;12.85;100.00
68193;BME280;55012;47.562;18.414;2022-10-01T05:34:30;99398.50;;;12.87;100.00
68193;BME280;55012;47.562;18.414;2022-10-01T05:36:56;99404.88;;;14.21;100.00
68193;BME280;55012;47.562;18.414;2022-10-01T05:39:21;99398.47;;;15.53;100.00
68193;BME280;55012;47.562;18.414;2022-10-01T05:41:46;99382.84;;;16.32;100.00
68193;BME280;55012;47.562;18.414;2022-10-01T05:44:12;99357.38;;;16.79;100.00
68193;BME280;55012;47.562;18.414;2022-10-01T05:46:37;99344.25;;;17.13;100.00
68193;BME280;55012;47.562;18.414;2022-10-01T05:49:03;99340.81;;;17.41;100.00
68193;BME280;55012;47.562;18.414;2022-10-01T05:51:31;99332.59;;;17.62;100.00
68193;BME280;55012;47.562;18.414;2022-10-01T05:53:56;99332.66;;;17.77;100.00
68193;BME280;55012;47.562;18.414;2022-10-01T05:56:25;99357.25;;;17.69;100.00
68193;BME280;55012;47.562;18.414;2022-10-01T05:58:51;99359.19;;;17.58;100.00
68193;BME280;55012;47.562;18.414;2022-10-01T06:01:16;99380.34;;;17.76;100.00
68193;BME280;55012;47.562;18.414;2022-10-01T06:03:41;99410.84;;;18.03;100.00
68193;BME280;55012;47.562;18.414;2022-10-01T06:06:08;99451.94;;;18.31;100.00
68193;BME280;55012;47.562;18.414;2022-10-01T06:08:34;99499.31;;;18.57;100.00
68193;BME280;55012;47.562;18.414;2022-10-01T06:11:02;99520.47;;;18.67;100.00
68193;BME280;55012;47.562;18.414;2022-10-01T06:13:27;99537.28;;;18.87;100.00
68193;BME280;55012;47.562;18.414;2022-10-01T06:15:53;99521.63;;;18.69;100.00
68193;BME280;55012;47.562;18.414;2022-10-01T06:18:19;99537.09;;;17.76;100.00
68193;BME280;55012;47.562;18.414;2022-10-01T06:20:44;99527.13;;;16.74;100.00
68193;BME280;55012;47.562;18.414;2022-10-01T06:23:11;99527.16;;;15.96;100.00
68193;BME280;55012;47.562;18.414;2022-10-01T06:25:39;99502.66;;;15.36;100.00
68193;BME280;55012;47.562;18.414;2022-10-01T06:28:07;99490.88;;;14.98;100.00
68193;BME280;55012;47.562;18.414;2022-10-01T06:30:35;99512.63;;;14.72;100.00
68193;BME280;55012;47.562;18.414;2022-10-01T06:33:08;99501.59;;;14.61;100.00
68193;BME280;55012;47.562;18.414;2022-10-01T06:35:39;99491.44;;;14.58;100.00
68193;BME280;55012;47.562;18.414;2022-10-01T06:38:05;99481.63;;;14.53;100.00
68193;BME280;55012;47.562;18.414;2022-10-01T06:40:31;99462.47;;;14.46;100.00
68193;BME280;55012;47.562;18.414;2022-10-01T06:42:57;99456.09;;;14.39;100.00
68193;BME280;55012;47.562;18.414;2022-10-01T06:45:27;99450.09;;;14.29;100.00
68193;BME280;55012;47.562;18.414;2022-10-01T06:47:59;99437.50;;;14.18;100.00
68193;BME280;55012;47.562;18.414;2022-10-01T06:50:30;99427.66;;;14.10;100.00
68193;BME280;55012;47.562;18.414;2022-10-01T06:52:57;99418.28;;;14.07;100.00
68193;BME280;55012;47.562;18.414;2022-10-01T06:55:25;99411.25;;;14.06;100.00
68193;BME280;55012;47.562;18.414;2022-10-01T06:57:59;99405.09;;;14.09;100.00
68193;BME280;55012;47.562;18.414;2022-10-01T07:00:27;99393.47;;;14.12;100.00
68193;BME280;55012;47.562;18.414;2022-10-01T07:02:53;99393.19;;;14.17;100.00
68193;BME280;55012;47.562;18.414;2022-10-01T07:05:20;99377.00;;;14.28;100.00
68193;BME280;55012;47.562;18.414;2022-10-01T07:07:45;99374.03;;;14.37;100.00
68193;BME280;55012;47.562;18.414;2022-10-01T07:10:13;99372.97;;;14.45;100.00
68193;BME280;55012;47.562;18.414;2022-10-01T07:12:39;99369.25;;;14.53;100.00
68193;BME280;55012;47.562;18.414;2022-10-01T07:15:06;99367.44;;;14.64;100.00
68193;BME280;55012;47.562;18.414;2022-10-01T07:17:32;99360.13;;;14.68;100.00
68193;BME280;55012;47.562;18.414;2022-10-01T07:19:58;99359.44;;;14.75;100.00
68193;BME280;55012;47.562;18.414;2022-10-01T07:22:23;99369.63;;;14.81;100.00
68193;BME280;55012;47.562;18.414;2022-10-01T07:24:50;99375.13;;;14.85;100.00
68193;BME280;55012;47.562;18.414;2022-10-01T07:27:16;99380.66;;;14.92;100.00
68193;BME280;55012;47.562;18.414;2022-10-01T07:29:42;99377.59;;;14.97;100.00
68193;BME280;55012;47.562;18.414;2022-10-01T07:32:08;99383.50;;;15.03;100.00
68193;BME280;55012;47.562;18.414;2022-10-01T07:34:36;99377.66;;;15.01;100.00
68193;BME280;55012;47.562;18.414;2022-10-01T07:37:02;99383.88;;;15.01;100.00
68193;BME280;55012;47.562;18.414;2022-10-01T07:39:28;99382.81;;;15.09;100.00
68193;BME280;55012;47.562;18.414;2022-10-01T07:41:55;99384.78;;;15.12;100.00
68193;BME280;55012;47.562;18.414;2022-10-01T07:44:20;99387.59;;;15.20;100.00
68193;BME280;55012;47.562;18.414;2022-10-01T07:46:46;99393.50;;;15.25;100.00
68193;BME280;55012;47.562;18.414;2022-10-01T07:49:13;99389.72;;;15.37;100.00
68193;BME280;55012;47.562;18.414;2022-10-01T07:51:39;99382.53;;;15.55;100.00
68193;BME280;55012;47.562;18.414;2022-10-01T07:54:05;99378.84;;;15.74;100.00
68193;BME280;55012;47.562;18.414;2022-10-01T07:56:31;99371.53;;;15.85;100.00
68193;BME280;55012;47.562;18.414;2022-10-01T07:58:57;99386.13;;;16.04;100.00
68193;BME280;55012;47.562;18.414;2022-10-01T08:01:23;99393.31;;;16.26;100.00
68193;BME280;55012;47.562;18.414;2022-10-01T08:03:50;99403.97;;;16.42;100.00
68193;BME280;55012;47.562;18.414;2022-10-01T08:06:20;99395.00;;;16.45;100.00
68193;BME280;55012;47.562;18.414;2022-10-01T08:08:46;99395.44;;;16.47;100.00
68193;BME280;55012;47.562;18.414;2022-10-01T08:11:12;99391.19;;;16.60;100.00
68193;BME280;55012;47.562;18.414;2022-10-01T08:13:45;99409.66;;;16.77;100.00
68193;BME280;55012;47.562;18.414;2022-10-01T08:16:11;99421.81;;;16.83;100.00
68193;BME280;55012;47.562;18.414;2022-10-01T08:18:36;99416.00;;;16.92;100.00
68193;BME280;55012;47.562;18.414;2022-10-01T08:21:02;99423.06;;;16.97;100.00
68193;BME280;55012;47.562;18.414;2022-10-01T08:23:29;99441.38;;;16.96;100.00
68193;BME280;55012;47.562;18.414;2022-10-01T08:26:00;99446.44;;;16.94;100.00
68193;BME280;55012;47.562;18.414;2022-10-01T08:28:26;99444.50;;;16.95;100.00
68193;BME280;55012;47.562;18.414;2022-10-01T08:30:51;99445.66;;;16.94;100.00
68193;BME280;55012;47.562;18.414;2022-10-01T08:33:17;99451.19;;;16.97;100.00
68193;BME280;55012;47.562;18.414;2022-10-01T08:35:42;99446.94;;;17.07;100.00
68193;BME280;55012;47.562;18.414;2022-10-01T08:38:09;99445.78;;;17.15;100.00
68193;BME280;55012;47.562;18.414;2022-10-01T08:40:41;99451.66;;;17.21;100.00
68193;BME280;55012;47.562;18.414;2022-10-01T08:43:35;99464.97;;;17.29;100.00
68193;BME280;55012;47.562;18.414;2022-10-01T08:46:05;99467.00;;;17.39;100.00
68193;BME280;55012;47.562;18.414;2022-10-01T08:48:46;99463.94;;;17.55;100.00
68193;BME280;55012;47.562;18.414;2022-10-01T08:51:29;99475.75;;;17.84;100.00
68193;BME280;55012;47.562;18.414;2022-10-01T08:54:20;99474.59;;;18.00;100.00
68193;BME280;55012;47.562;18.414;2022-10-01T08:56:47;99486.34;;;17.96;100.00
68193;BME280;55012;47.562;18.414;2022-10-01T09:05:16;99501.53;;;17.73;100.00
68193;BME280;55012;47.562;18.414;2022-10-01T09:18:49;99480.19;;;17.23;100.00
68193;BME280;55012;47.562;18.414;2022-10-01T09:21:27;99492.31;;;17.22;100.00
68193;BME280;55012;47.562;18.414;2022-10-01T09:24:09;99488.00;;;17.28;100.00
68193;BME280;55012;47.562;18.414;2022-10-01T09:26:40;99486.44;;;17.24;100.00
68193;BME280;55012;47.562;18.414;2022-10-01T09:29:22;99479.47;;;17.37;100.00
68193;BME280;55012;47.562;18.414;2022-10-01T09:31:51;99464.28;;;17.50;100.00
68193;BME280;55012;47.562;18.414;2022-10-01T09:34:35;99453.72;;;17.52;100.00
68193;BME280;55012;47.562;18.414;2022-10-01T09:37:11;99451.44;;;17.65;100.00
68193;BME280;55012;47.562;18.414;2022-10-01T09:39:56;99444.88;;;17.84;100.00
68193;BME280;55012;47.562;18.414;2022-10-01T09:42:26;99444.91;;;17.98;100.00
68193;BME280;55012;47.562;18.414;2022-10-01T09:44:55;99454.69;;;18.06;100.00
68193;BME280;55012;47.562;18.414;2022-10-01T09:47:22;99457.81;;;18.08;100.00
68193;BME280;55012;47.562;18.414;2022-10-01T09:49:49;99471.88;;;18.10;100.00
68193;BME280;55012;47.562;18.414;2022-10-01T09:52:33;99454.28;;;18.15;100.00
68193;BME280;55012;47.562;18.414;2022-10-01T09:55:15;99463.66;;;18.17;100.00
68193;BME280;55012;47.562;18.414;2022-10-01T10:02:44;99467.19;;;18.07;100.00
68193;BME280;55012;47.562;18.414;2022-10-01T10:05:21;99466.38;;;17.92;100.00
68193;BME280;55012;47.562;18.414;2022-10-01T10:07:58;99472.97;;;17.70;100.00
68193;BME280;55012;47.562;18.414;2022-10-01T10:10:32;99469.41;;;17.55;100.00
68193;BME280;55012;47.562;18.414;2022-10-01T10:13:33;99456.88;;;17.51;100.00
68193;BME280;55012;47.562;18.414;2022-10-01T10:16:33;99447.47;;;17.52;100.00
68193;BME280;55012;47.562;18.414;2022-10-01T10:19:05;99450.59;;;17.54;100.00
68193;BME280;55012;47.562;18.414;2022-10-01T10:21:34;99454.09;;;17.44;100.00
68193;BME280;55012;47.562;18.414;2022-10-01T10:24:05;99448.97;;;17.28;100.00
68193;BME280;55012;47.562;18.414;2022-10-01T10:26:38;99440.38;;;17.26;100.00
68193;BME280;55012;47.562;18.414;2022-10-01T10:29:06;99434.50;;;17.24;100.00
68193;BME280;55012;47.562;18.414;2022-10-01T10:31:42;99432.91;;;17.19;100.00
68193;BME280;55012;47.562;18.414;2022-10-01T10:36:38;99413.03;;;17.22;100.00
68193;BME280;55012;47.562;18.414;2022-10-01T10:39:05;99399.84;;;17.60;100.00
68193;BME280;55012;47.562;18.414;2022-10-01T10:41:42;99404.97;;;17.86;100.00
68193;BME280;55012;47.562;18.414;2022-10-01T10:44:12;99408.50;;;17.87;100.00
68193;BME280;55012;47.562;18.414;2022-10-01T10:46:41;99411.63;;;17.78;100.00
68193;BME280;55012;47.562;18.414;2022-10-01T10:49:18;99402.63;;;17.78;100.00
68193;BME280;55012;47.562;18.414;2022-10-01T10:51:51;99407.72;;;17.79;100.00
68193;BME280;55012;47.562;18.414;2022-10-01T10:54:40;99404.19;;;17.86;100.00
68193;BME280;55012;47.562;18.414;2022-10-01T10:57:23;99399.91;;;17.88;100.00
68193;BME280;55012;47.562;18.414;2022-10-01T11:00:15;99396.78;;;18.11;100.00
68193;BME280;55012;47.562;18.414;2022-10-01T11:02:54;99393.66;;;18.23;100.00
68193;BME280;55012;47.562;18.414;2022-10-01T11:05:26;99407.72;;;18.25;100.00
68193;BME280;55012;47.562;18.414;2022-10-01T11:07:59;99401.84;;;18.20;100.00
68193;BME280;55012;47.562;18.414;2022-10-01T11:21:53;99386.22;;;18.10;100.00
68193;BME280;55012;47.562;18.414;2022-10-01T11:27:18;99391.66;;;17.71;100.00
68193;BME280;55012;47.562;18.414;2022-10-01T11:32:39;99380.66;;;17.53;100.00
68193;BME280;55012;47.562;18.414;2022-10-01T11:38:02;99378.28;;;17.30;100.00
68193;BME280;55012;47.562;18.414;2022-10-01T11:45:49;99350.69;;;16.69;100.00
68193;BME280;55012;47.562;18.414;2022-10-01T11:50:52;99337.28;;;16.46;100.00
68193;BME280;55012;47.562;18.414;2022-10-01T11:53:27;99338.00;;;16.36;100.00
68193;BME280;55012;47.562;18.414;2022-10-01T11:56:01;99321.19;;;16.27;100.00
68193;BME280;55012;47.562;18.414;2022-10-01T12:06:18;99280.78;;;16.57;100.00
68193;BME280;55012;47.562;18.414;2022-10-01T12:08:49;99276.88;;;16.58;100.00
68193;BME280;55012;47.562;18.414;2022-10-01T12:11:54;99276.09;;;16.62;100.00
68193;BME280;55012;47.562;18.414;2022-10-01T12:14:20;99272.59;;;16.61;100.00
68193;BME280;55012;47.562;18.414;2022-10-01T12:17:22;99263.22;;;16.55;100.00
68193;BME280;55012;47.562;18.414;2022-10-01T12:19:52;99268.28;;;16.60;100.00
68193;BME280;55012;47.562;18.414;2022-10-01T12:22:23;99260.53;;;16.66;100.00
68193;BME280;55012;47.562;18.414;2022-10-01T12:24:51;99260.50;;;16.55;100.00
68193;BME280;55012;47.562;18.414;2022-10-01T12:30:03;99254.09;;;16.22;100.00
68193;BME280;55012;47.562;18.414;2022-10-01T12:32:57;99252.06;;;16.12;100.00
68193;BME280;55012;47.562;18.414;2022-10-01T12:38:20;99243.66;;;15.73;100.00
68193;BME280;55012;47.562;18.414;2022-10-01T12:40:58;99231.03;;;15.58;100.00
68193;BME280;55012;47.562;18.414;2022-10-01T12:51:45;99213.44;;;15.04;100.00
68193;BME280;55012;47.562;18.414;2022-10-01T12:56:48;99204.63;;;14.77;100.00
68193;BME280;55012;47.562;18.414;2022-10-01T12:59:26;99198.19;;;14.58;100.00
68193;BME280;55012;47.562;18.414;2022-10-01T13:02:08;99190.75;;;14.55;100.00
68193;BME280;55012;47.562;18.414;2022-10-01T13:04:56;99183.34;;;14.52;100.00
68193;BME280;55012;47.562;18.414;2022-10-01T13:13:02;99174.00;;;14.20;100.00
68193;BME280;55012;47.562;18.414;2022-10-01T13:15:35;99177.47;;;14.17;100.00
68193;BME280;55012;47.562;18.414;2022-10-01T13:27:04;99160.22;;;13.75;100.00
68193;BME280;55012;47.562;18.414;2022-10-01T13:35:30;99144.78;;;13.57;100.00
68193;BME280;55012;47.562;18.414;2022-10-01T13:37:57;99129.97;;;13.51;100.00
68193;BME280;55012;47.562;18.414;2022-10-01T13:42:50;99136.09;;;13.44;100.00
68193;BME280;55012;47.562;18.414;2022-10-01T13:45:31;99144.97;;;13.41;100.00
68193;BME280;55012;47.562;18.414;2022-10-01T13:48:25;99134.44;;;13.39;100.00
68193;BME280;55012;47.562;18.414;2022-10-01T13:51:08;99133.28;;;13.40;100.00
68193;BME280;55012;47.562;18.414;2022-10-01T13:53:48;99130.56;;;13.40;100.00
68193;BME280;55012;47.562;18.414;2022-10-01T13:56:30;99124.31;;;13.36;100.00
68193;BME280;55012;47.562;18.414;2022-10-01T13:58:56;99137.50;;;13.34;100.00
68193;BME280;55012;47.562;18.414;2022-10-01T14:01:29;99119.19;;;13.31;100.00
68193;BME280;55012;47.562;18.414;2022-10-01T14:04:18;99111.91;;;13.35;100.00
68193;BME280;55012;47.562;18.414;2022-10-01T14:06:53;99102.97;;;13.35;100.00
68193;BME280;55012;47.562;18.414;2022-10-01T14:12:02;99112.66;;;13.36;100.00
68193;BME280;55012;47.562;18.414;2022-10-01T14:14:54;99120.03;;;13.35;100.00
68193;BME280;55012;47.562;18.414;2022-10-01T14:17:39;99110.31;;;13.34;100.00
68193;BME280;55012;47.562;18.414;2022-10-01T14:20:06;99092.91;;;13.39;100.00
68193;BME280;55012;47.562;18.414;2022-10-01T14:38:27;99039.81;;;14.12;100.00
68193;BME280;55012;47.562;18.414;2022-10-01T14:40:53;99041.38;;;14.10;100.00
68193;BME280;55012;47.562;18.414;2022-10-01T14:46:03;99039.81;;;14.09;100.00
68193;BME280;55012;47.562;18.414;2022-10-01T14:48:33;99046.41;;;14.08;100.00
68193;BME280;55012;47.562;18.414;2022-10-01T14:51:02;99046.44;;;14.11;100.00
68193;BME280;55012;47.562;18.414;2022-10-01T14:53:31;99049.56;;;14.13;100.00
68193;BME280;55012;47.562;18.414;2022-10-01T14:56:04;99044.94;;;14.17;100.00
68193;BME280;55012;47.562;18.414;2022-10-01T14:58:40;99045.81;;;14.25;100.00
68193;BME280;55012;47.562;18.414;2022-10-01T15:01:16;99061.75;;;14.26;100.00
68193;BME280;55012;47.562;18.414;2022-10-01T15:03:42;99059.41;;;14.25;100.00
68193;BME280;55012;47.562;18.414;2022-10-01T15:06:14;99076.84;;;14.20;100.00
68193;BME280;55012;47.562;18.414;2022-10-01T15:08:44;99081.91;;;14.22;100.00
68193;BME280;55012;47.562;18.414;2022-10-01T15:11:18;99087.41;;;14.29;100.00
68193;BME280;55012;47.562;18.414;2022-10-01T15:13:47;99099.88;;;14.30;100.00
68193;BME280;55012;47.562;18.414;2022-10-01T15:16:16;99107.69;;;14.31;100.00
68193;BME280;55012;47.562;18.414;2022-10-01T15:18:55;99124.41;;;14.33;100.00
68193;BME280;55012;47.562;18.414;2022-10-01T15:21:49;99137.25;;;14.37;100.00